Time;durP1;ratioP1;P1;durP2;ratioP2;P2;SDS_P1;SDS_P2;PMS_P1;PMS_P2;Temp;Humidity;BMP_temperature;BMP_pressure;BME280_temperature;BME280_humidity;BME280_pressure;Samples;Min_cycle;Max_cycle;Signal;HPM_P1;HPM_P2
2021/05/25 00:01:44;;;;;;;7.20;2.95;;;10.10;99.90;;;;;;5011780;28;20364;-61
2021/05/25 00:04:10;;;;;;;6.05;3.10;;;10.10;99.90;;;;;;5012169;28;20160;-61
2021/05/25 00:06:35;;;;;;;8.25;3.08;;;10.00;99.90;;;;;;5011786;28;20042;-62
2021/05/25 00:09:03;;;;;;;4.82;2.78;;;10.00;99.90;;;;;;5012127;28;20488;-62
2021/05/25 00:11:29;;;;;;;8.50;2.83;;;10.00;99.90;;;;;;5011848;28;20034;-61
2021/05/25 00:13:55;;;;;;;6.18;3.03;;;10.10;99.90;;;;;;5012078;28;20472;-62
2021/05/25 00:16:20;;;;;;;6.88;2.60;;;10.00;99.90;;;;;;5011191;28;20934;-61
2021/05/25 00:18:46;;;;;;;7.85;3.17;;;10.10;99.90;;;;;;5017993;28;20061;-61
2021/05/25 00:21:12;;;;;;;4.75;2.80;;;10.00;99.90;;;;;;5011788;28;20135;-61
2021/05/25 00:23:38;;;;;;;7.00;2.80;;;10.00;99.90;;;;;;5011139;28;20333;-60
2021/05/25 00:26:03;;;;;;;5.40;2.28;;;10.00;99.90;;;;;;5011103;28;20053;-62
2021/05/25 00:28:29;;;;;;;9.65;2.50;;;9.90;99.90;;;;;;5012321;28;20462;-61
2021/05/25 00:30:55;;;;;;;6.35;2.55;;;9.80;99.90;;;;;;5012272;28;20041;-60
2021/05/25 00:33:20;;;;;;;4.50;2.55;;;9.90;99.90;;;;;;5010850;28;20026;-61
2021/05/25 00:35:46;;;;;;;8.98;2.42;;;9.80;99.90;;;;;;5011084;28;20407;-60
2021/05/25 00:38:12;;;;;;;6.65;2.38;;;9.90;99.90;;;;;;5012216;28;20591;-61
2021/05/25 00:40:39;;;;;;;10.13;2.50;;;9.80;99.90;;;;;;5010792;28;20104;-61
2021/05/25 00:43:05;;;;;;;6.40;2.15;;;9.80;99.90;;;;;;5011793;28;20120;-61
2021/05/25 00:45:31;;;;;;;5.38;2.20;;;9.70;99.90;;;;;;5010385;28;20056;-62
2021/05/25 00:47:57;;;;;;;5.28;2.00;;;9.70;99.90;;;;;;5011563;28;20112;-61
2021/05/25 00:50:28;;;;;;;6.30;2.30;;;9.70;99.90;;;;;;5010762;28;20045;-62
2021/05/25 00:53:00;;;;;;;6.95;2.50;;;9.70;99.90;;;;;;5011462;28;20121;-61
2021/05/25 00:55:29;;;;;;;9.25;2.67;;;9.60;99.90;;;;;;5010640;28;20046;-60
2021/05/25 00:57:57;;;;;;;7.47;2.15;;;9.60;99.90;;;;;;5011594;28;20431;-61
2021/05/25 01:00:36;;;;;;;8.38;2.38;;;9.50;99.90;;;;;;5010242;28;20148;-61
2021/05/25 01:03:02;;;;;;;14.60;2.70;;;9.50;99.90;;;;;;5018223;28;20046;-62
2021/05/25 01:05:28;;;;;;;6.00;1.83;;;9.40;99.90;;;;;;5010207;28;20026;-60
2021/05/25 01:07:53;;;;;;;6.68;2.08;;;9.40;99.90;;;;;;5011797;28;20052;-60
2021/05/25 01:10:27;;;;;;;5.80;2.13;;;9.40;99.90;;;;;;5011009;28;20492;-61
2021/05/25 01:12:59;;;;;;;5.30;1.90;;;9.30;99.90;;;;;;5011418;28;20120;-61
2021/05/25 01:15:26;;;;;;;4.65;1.90;;;9.20;99.90;;;;;;5010068;28;20570;-60
2021/05/25 01:17:53;;;;;;;8.23;2.00;;;9.30;99.90;;;;;;5011062;28;20033;-61
2021/05/25 01:20:22;;;;;;;4.40;1.70;;;9.30;99.90;;;;;;4993195;28;20424;-61
2021/05/25 01:22:49;;;;;;;6.30;1.77;;;9.30;99.90;;;;;;5010676;28;20093;-61
2021/05/25 01:25:16;;;;;;;6.63;2.00;;;9.30;99.90;;;;;;5008802;28;20046;-60
2021/05/25 01:27:49;;;;;;;6.05;1.90;;;9.20;99.90;;;;;;5003101;28;20034;-60
2021/05/25 01:30:15;;;;;;;5.97;1.73;;;9.20;99.90;;;;;;5007937;28;20057;-61
2021/05/25 01:32:41;;;;;;;7.13;2.00;;;9.10;99.90;;;;;;5010040;28;20038;-62
2021/05/25 01:35:07;;;;;;;11.30;2.13;;;9.20;99.90;;;;;;5010473;28;20049;-61
2021/05/25 01:37:33;;;;;;;3.00;1.58;;;9.10;99.90;;;;;;4992409;28;20495;-60
2021/05/25 01:39:59;;;;;;;6.72;1.80;;;9.10;99.90;;;;;;5011152;28;20056;-61
2021/05/25 01:42:32;;;;;;;8.05;2.05;;;9.10;99.90;;;;;;5010417;28;20034;-60
2021/05/25 01:44:58;;;;;;;6.80;2.03;;;9.10;99.90;;;;;;5011050;28;20134;-61
2021/05/25 01:47:24;;;;;;;5.32;1.92;;;9.10;99.90;;;;;;5010045;28;20044;-60
2021/05/25 01:49:50;;;;;;;6.57;1.63;;;9.00;99.90;;;;;;5010733;28;20033;-61
2021/05/25 01:52:18;;;;;;;6.75;1.88;;;9.00;99.90;;;;;;4992914;28;20134;-61
2021/05/25 01:54:45;;;;;;;6.10;1.92;;;8.90;99.90;;;;;;5011631;28;20041;-61
2021/05/25 01:57:11;;;;;;;5.47;1.75;;;8.90;99.90;;;;;;5016228;28;20038;-60
2021/05/25 01:59:36;;;;;;;4.32;1.90;;;8.90;99.90;;;;;;5010260;28;20088;-60
2021/05/25 02:02:02;;;;;;;6.70;1.80;;;8.80;99.90;;;;;;5009837;28;20112;-61
2021/05/25 02:04:31;;;;;;;5.80;1.65;;;8.80;99.90;;;;;;5010780;28;20084;-61
2021/05/25 02:06:58;;;;;;;4.53;1.80;;;8.70;99.90;;;;;;5009778;28;20038;-60
2021/05/25 02:09:23;;;;;;;8.77;2.08;;;8.80;99.90;;;;;;5010815;28;20573;-62
2021/05/25 02:11:49;;;;;;;6.40;1.75;;;8.70;99.90;;;;;;5009449;28;20037;-60
2021/05/25 02:14:15;;;;;;;6.18;2.15;;;8.70;99.90;;;;;;5010409;28;20389;-60
2021/05/25 02:16:40;;;;;;;4.60;1.70;;;8.80;99.90;;;;;;5010124;28;20041;-62
2021/05/25 02:19:06;;;;;;;5.60;1.60;;;8.70;99.90;;;;;;5010510;28;20060;-61
2021/05/25 02:21:32;;;;;;;5.40;1.70;;;8.70;99.90;;;;;;5009970;28;20454;-60
2021/05/25 02:23:57;;;;;;;5.22;1.60;;;8.70;99.90;;;;;;5010404;28;20045;-61
2021/05/25 02:26:23;;;;;;;5.57;1.45;;;8.70;99.90;;;;;;5009019;28;20042;-61
2021/05/25 02:28:49;;;;;;;6.25;1.60;;;8.60;99.90;;;;;;5014314;28;20045;-61
2021/05/25 02:31:14;;;;;;;6.00;1.35;;;8.60;99.90;;;;;;5013675;28;20030;-61
2021/05/25 02:33:41;;;;;;;6.30;1.70;;;8.60;99.90;;;;;;5014130;28;20472;-62
2021/05/25 02:36:07;;;;;;;6.53;1.70;;;8.60;99.90;;;;;;5012528;28;20500;-61
2021/05/25 02:38:33;;;;;;;7.05;1.70;;;8.60;99.90;;;;;;5013396;28;20042;-62
2021/05/25 02:40:59;;;;;;;3.88;1.50;;;8.60;99.90;;;;;;5018442;28;20061;-61
2021/05/25 02:43:26;;;;;;;8.88;1.70;;;8.70;99.90;;;;;;5013958;28;20045;-62
2021/05/25 02:45:53;;;;;;;4.63;1.42;;;8.60;99.90;;;;;;4995356;28;20046;-62
2021/05/25 02:48:19;;;;;;;5.57;1.58;;;8.60;99.90;;;;;;5013964;28;20037;-60
2021/05/25 02:50:45;;;;;;;6.00;1.27;;;8.70;99.90;;;;;;5013453;28;20484;-59
2021/05/25 02:53:12;;;;;;;7.20;1.60;;;8.60;99.90;;;;;;5026784;28;20057;-60
2021/05/25 02:55:40;;;;;;;8.07;1.45;;;8.70;99.90;;;;;;5016577;28;20029;-60
2021/05/25 02:58:07;;;;;;;11.93;1.73;;;8.70;99.90;;;;;;5012779;28;20065;-61
2021/05/25 03:00:35;;;;;;;7.68;1.83;;;8.70;99.90;;;;;;5013985;28;20038;-61
2021/05/25 03:03:00;;;;;;;5.80;1.50;;;8.60;99.90;;;;;;5012430;28;20180;-62
2021/05/25 03:05:27;;;;;;;4.45;1.55;;;8.60;99.90;;;;;;5013729;28;20128;-61
2021/05/25 03:07:54;;;;;;;6.55;2.00;;;8.70;99.90;;;;;;5012323;28;20069;-61
2021/05/25 03:10:23;;;;;;;6.82;1.65;;;8.60;99.90;;;;;;5013237;28;20188;-61
2021/05/25 03:12:49;;;;;;;6.20;1.60;;;8.70;99.90;;;;;;5013158;28;20117;-61
2021/05/25 03:15:18;;;;;;;6.13;1.92;;;8.70;99.90;;;;;;5013229;28;20099;-60
2021/05/25 03:17:43;;;;;;;9.82;1.98;;;8.60;99.90;;;;;;5012705;28;20080;-60
2021/05/25 03:20:12;;;;;;;8.35;1.92;;;8.60;99.90;;;;;;5013117;28;20069;-61
2021/05/25 03:22:38;;;;;;;4.93;1.65;;;8.60;99.90;;;;;;5012086;28;20412;-61
2021/05/25 03:25:06;;;;;;;7.18;1.75;;;8.60;99.90;;;;;;5011206;28;20037;-61
2021/05/25 03:27:32;;;;;;;4.53;1.80;;;8.70;99.90;;;;;;5012375;28;20034;-61
2021/05/25 03:29:57;;;;;;;8.25;1.70;;;8.70;99.90;;;;;;5013370;28;20395;-61
2021/05/25 03:32:23;;;;;;;5.88;2.10;;;8.70;99.90;;;;;;5011795;28;20172;-60
2021/05/25 03:34:49;;;;;;;6.82;2.00;;;8.70;99.90;;;;;;5012697;28;20038;-61
2021/05/25 03:37:15;;;;;;;5.55;1.90;;;8.70;99.90;;;;;;4993680;28;20038;-61
2021/05/25 03:39:40;;;;;;;7.22;1.58;;;8.70;99.90;;;;;;5012360;28;20045;-61
2021/05/25 03:42:06;;;;;;;6.43;1.73;;;8.70;99.90;;;;;;5012043;28;20046;-61
2021/05/25 03:44:32;;;;;;;7.38;2.42;;;8.70;99.90;;;;;;5011728;28;20030;-61
2021/05/25 03:46:58;;;;;;;7.57;1.65;;;8.70;99.90;;;;;;4994504;28;20045;-60
2021/05/25 03:49:24;;;;;;;6.22;1.58;;;8.70;99.90;;;;;;5012464;28;20385;-61
2021/05/25 03:51:50;;;;;;;5.80;1.73;;;8.70;99.90;;;;;;5011589;28;20108;-61
2021/05/25 03:54:23;;;;;;;8.13;1.90;;;8.60;99.90;;;;;;5012621;28;20049;-61
2021/05/25 03:56:58;;;;;;;9.02;1.50;;;8.60;99.90;;;;;;5004410;28;20054;-61
2021/05/25 03:59:24;;;;;;;5.57;1.80;;;8.60;99.90;;;;;;5012561;28;20084;-61
2021/05/25 04:01:52;;;;;;;7.97;1.60;;;8.60;99.90;;;;;;4994386;28;20050;-61
2021/05/25 04:04:18;;;;;;;6.22;1.48;;;8.60;99.90;;;;;;5012727;28;20387;-60
2021/05/25 04:06:43;;;;;;;5.65;1.50;;;8.70;99.90;;;;;;5011739;28;20041;-60
2021/05/25 04:09:09;;;;;;;8.63;1.58;;;8.70;99.90;;;;;;5011849;28;20038;-61
2021/05/25 04:11:35;;;;;;;5.90;1.55;;;8.70;99.90;;;;;;5025905;28;20041;-60
2021/05/25 04:14:03;;;;;;;5.75;1.40;;;8.60;99.90;;;;;;4994346;28;20068;-62
2021/05/25 04:16:29;;;;;;;5.28;1.52;;;8.70;99.90;;;;;;5012141;28;20069;-61
2021/05/25 04:18:55;;;;;;;8.63;1.73;;;8.70;99.90;;;;;;5015515;28;20072;-61
2021/05/25 04:21:21;;;;;;;12.65;1.70;;;8.70;99.90;;;;;;5011512;28;20050;-61
2021/05/25 04:23:47;;;;;;;4.90;1.33;;;8.70;99.90;;;;;;5011253;28;20041;-60
2021/05/25 04:26:14;;;;;;;12.70;2.00;;;8.80;99.90;;;;;;5012127;28;20054;-62
2021/05/25 04:28:40;;;;;;;5.57;1.30;;;8.90;99.90;;;;;;5010642;28;20383;-62
2021/05/25 04:31:06;;;;;;;8.30;1.40;;;8.90;99.90;;;;;;4994283;28;20048;-62
2021/05/25 04:33:31;;;;;;;8.80;1.50;;;8.90;99.90;;;;;;5010973;28;20480;-61
2021/05/25 04:35:57;;;;;;;6.68;1.63;;;8.90;99.90;;;;;;5011568;28;20056;-61
2021/05/25 04:38:23;;;;;;;4.95;1.30;;;8.90;99.90;;;;;;5011286;28;20037;-60
2021/05/25 04:40:48;;;;;;;7.43;1.70;;;9.00;99.90;;;;;;5011652;28;20447;-61
2021/05/25 04:43:14;;;;;;;6.80;1.50;;;9.00;99.90;;;;;;5011144;28;20038;-61
2021/05/25 04:45:42;;;;;;;6.57;1.70;;;9.00;99.90;;;;;;5011132;28;20823;-61
2021/05/25 04:48:09;;;;;;;4.90;1.40;;;8.90;99.90;;;;;;5011001;28;20036;-61
2021/05/25 04:50:36;;;;;;;5.93;1.42;;;8.90;99.90;;;;;;5010820;28;20038;-61
2021/05/25 04:53:02;;;;;;;4.18;1.17;;;8.90;99.90;;;;;;5010422;28;20044;-60
2021/05/25 04:55:28;;;;;;;6.45;1.75;;;8.80;99.90;;;;;;5011986;28;20041;-62
2021/05/25 04:57:54;;;;;;;6.70;1.60;;;8.80;99.90;;;;;;5010835;28;20380;-62
2021/05/25 05:00:24;;;;;;;8.15;1.67;;;8.80;99.90;;;;;;5011392;28;20093;-62
2021/05/25 05:02:49;;;;;;;5.05;1.50;;;8.90;99.90;;;;;;5010619;28;20042;-60
2021/05/25 05:05:15;;;;;;;6.25;1.30;;;8.90;99.90;;;;;;4998178;28;20124;-61
2021/05/25 05:07:41;;;;;;;7.65;1.50;;;9.10;99.90;;;;;;5010699;28;20054;-60
2021/05/25 05:10:08;;;;;;;6.18;1.40;;;9.10;99.90;;;;;;5011432;28;20032;-61
2021/05/25 05:12:34;;;;;;;4.95;1.20;;;9.10;99.90;;;;;;5010558;28;20041;-59
2021/05/25 05:15:01;;;;;;;7.25;1.10;;;9.20;99.90;;;;;;5010991;28;20038;-60
2021/05/25 05:17:28;;;;;;;10.80;1.52;;;9.20;99.90;;;;;;5018852;28;20040;-60
2021/05/25 05:19:54;;;;;;;6.93;1.60;;;9.20;99.90;;;;;;5014014;28;20037;-60
2021/05/25 05:22:21;;;;;;;7.38;1.73;;;9.20;99.90;;;;;;5010182;28;20048;-61
2021/05/25 05:24:48;;;;;;;6.28;1.70;;;9.20;99.90;;;;;;5009950;28;20041;-61
2021/05/25 05:27:13;;;;;;;8.05;1.83;;;9.20;99.90;;;;;;4992870;28;20100;-60
2021/05/25 05:29:39;;;;;;;6.43;1.50;;;9.20;99.90;;;;;;5010595;28;20038;-61
2021/05/25 05:32:05;;;;;;;7.97;1.55;;;9.10;99.90;;;;;;5010187;28;20112;-61
2021/05/25 05:34:32;;;;;;;6.07;1.50;;;9.10;99.90;;;;;;5010709;28;20029;-60
2021/05/25 05:36:57;;;;;;;7.30;1.42;;;9.10;99.90;;;;;;5010436;28;20034;-61
2021/05/25 05:39:23;;;;;;;7.30;1.30;;;9.10;99.90;;;;;;5010654;28;20551;-60
2021/05/25 05:41:49;;;;;;;4.65;1.42;;;9.10;99.90;;;;;;5010834;28;20439;-60
2021/05/25 05:44:14;;;;;;;10.45;2.05;;;9.10;99.90;;;;;;5009777;28;20050;-59
2021/05/25 05:46:40;;;;;;;6.72;1.40;;;9.00;99.90;;;;;;5011093;28;20816;-61
2021/05/25 05:49:06;;;;;;;6.43;1.65;;;9.10;99.90;;;;;;5010107;28;20152;-61
2021/05/25 05:51:32;;;;;;;9.80;3.08;;;9.10;99.90;;;;;;5010958;28;20038;-60
2021/05/25 05:53:58;;;;;;;8.68;1.90;;;9.10;99.90;;;;;;5009541;28;20416;-60
2021/05/25 05:56:25;;;;;;;6.75;1.80;;;9.10;99.90;;;;;;5010822;28;20448;-61
2021/05/25 05:58:51;;;;;;;7.72;1.88;;;9.20;99.90;;;;;;5009601;28;20064;-60
2021/05/25 06:01:17;;;;;;;8.05;1.70;;;9.20;99.90;;;;;;5012061;28;20034;-61
2021/05/25 06:03:46;;;;;;;10.27;1.80;;;9.20;99.90;;;;;;5018061;28;20045;-62
2021/05/25 06:06:13;;;;;;;5.43;1.55;;;9.20;99.90;;;;;;5014938;28;20046;-61
2021/05/25 06:08:40;;;;;;;9.57;1.90;;;9.20;99.90;;;;;;5013895;28;20484;-61
2021/05/25 06:11:07;;;;;;;5.30;1.60;;;9.20;99.90;;;;;;5014945;28;20065;-60
2021/05/25 06:13:33;;;;;;;12.55;1.80;;;9.30;99.90;;;;;;5013647;28;20180;-61
2021/05/25 06:16:02;;;;;;;5.35;1.52;;;9.30;99.90;;;;;;5014820;28;20045;-62
2021/05/25 06:18:32;;;;;;;7.03;1.75;;;9.30;99.90;;;;;;5013170;28;20121;-61
2021/05/25 06:20:59;;;;;;;6.88;2.20;;;9.40;99.90;;;;;;5023354;28;20053;-60
2021/05/25 06:23:25;;;;;;;6.80;1.98;;;9.50;99.90;;;;;;5013426;28;20045;-61
2021/05/25 06:25:51;;;;;;;9.68;1.92;;;9.50;99.90;;;;;;5012926;28;20042;-60
2021/05/25 06:28:17;;;;;;;6.95;1.80;;;9.60;99.90;;;;;;5013551;28;20049;-60
2021/05/25 06:30:43;;;;;;;9.98;2.50;;;9.70;99.90;;;;;;5017972;28;20041;-61
2021/05/25 06:33:09;;;;;;;12.23;2.03;;;9.70;99.90;;;;;;5011153;28;20114;-60
2021/05/25 06:35:35;;;;;;;6.80;1.88;;;9.70;99.90;;;;;;5010682;28;20117;-59
2021/05/25 06:38:02;;;;;;;9.05;2.03;;;9.80;99.90;;;;;;5013365;28;20038;-59
2021/05/25 06:40:29;;;;;;;6.65;1.60;;;9.80;99.90;;;;;;5014333;28;20204;-62
2021/05/25 06:42:55;;;;;;;9.23;2.33;;;9.90;99.90;;;;;;5012803;28;20437;-62
2021/05/25 06:45:21;;;;;;;6.10;1.73;;;9.90;99.90;;;;;;5009911;28;20483;-60
2021/05/25 06:47:47;;;;;;;5.95;1.98;;;9.90;99.90;;;;;;5010145;28;20038;-62
2021/05/25 06:50:14;;;;;;;8.07;1.70;;;9.90;99.90;;;;;;5014320;28;20033;-60
2021/05/25 06:52:41;;;;;;;6.53;1.73;;;10.00;99.90;;;;;;5013407;28;20033;-61
2021/05/25 06:55:08;;;;;;;6.90;1.65;;;10.10;99.90;;;;;;5010670;28;21625;-62
2021/05/25 06:57:34;;;;;;;6.47;1.90;;;10.10;99.90;;;;;;5008540;28;20041;-61
2021/05/25 06:59:59;;;;;;;5.90;2.17;;;10.20;99.90;;;;;;5012865;28;20034;-62
2021/05/25 07:02:25;;;;;;;9.65;2.70;;;10.30;99.90;;;;;;5012281;28;20034;-62
2021/05/25 07:04:52;;;;;;;8.13;2.10;;;10.30;99.90;;;;;;5011807;28;20344;-61
2021/05/25 07:07:18;;;;;;;7.85;1.52;;;10.30;99.90;;;;;;5013501;28;20030;-62
2021/05/25 07:09:43;;;;;;;5.63;1.80;;;10.30;99.90;;;;;;5011506;28;20030;-62
2021/05/25 07:12:10;;;;;;;7.13;1.63;;;10.30;99.90;;;;;;5012735;28;20546;-61
2021/05/25 07:14:36;;;;;;;6.35;1.63;;;10.30;99.90;;;;;;5010964;28;20026;-60
2021/05/25 07:17:03;;;;;;;7.32;1.70;;;10.30;99.90;;;;;;4995734;28;20100;-62
2021/05/25 07:19:28;;;;;;;5.30;2.17;;;10.30;99.90;;;;;;5012351;28;20122;-61
2021/05/25 07:21:54;;;;;;;11.68;1.60;;;10.30;99.90;;;;;;5013485;28;20125;-62
2021/05/25 07:24:20;;;;;;;10.02;2.30;;;10.40;99.90;;;;;;5012598;28;20515;-62
2021/05/25 07:26:45;;;;;;;9.40;3.28;;;10.50;99.90;;;;;;5012776;28;20034;-60
2021/05/25 07:29:11;;;;;;;9.57;2.88;;;10.40;99.90;;;;;;5012677;28;20491;-60
2021/05/25 07:31:37;;;;;;;8.20;1.73;;;10.50;99.90;;;;;;5012619;28;20044;-59
2021/05/25 07:34:03;;;;;;;9.25;2.00;;;10.50;99.90;;;;;;5012809;28;20460;-60
2021/05/25 07:36:29;;;;;;;6.05;1.70;;;10.40;99.90;;;;;;5021935;28;20045;-62
2021/05/25 07:38:55;;;;;;;5.50;1.90;;;10.40;99.90;;;;;;5011732;28;20038;-61
2021/05/25 07:41:21;;;;;;;4.93;1.40;;;10.50;99.90;;;;;;5008914;28;20040;-62
2021/05/25 07:43:47;;;;;;;6.10;1.77;;;10.40;99.90;;;;;;5010793;28;20046;-60
2021/05/25 07:46:12;;;;;;;7.15;1.60;;;10.40;99.90;;;;;;5011557;28;20034;-63
2021/05/25 07:48:40;;;;;;;5.05;1.30;;;10.40;99.90;;;;;;5014887;28;20033;-59
2021/05/25 07:51:06;;;;;;;6.60;1.60;;;10.50;99.90;;;;;;5012253;28;20125;-61
2021/05/25 07:53:32;;;;;;;7.55;1.77;;;10.50;99.90;;;;;;5011957;28;20034;-61
2021/05/25 07:55:58;;;;;;;11.27;2.00;;;10.60;99.90;;;;;;5011827;28;20038;-63
2021/05/25 07:58:24;;;;;;;9.68;2.08;;;10.70;99.90;;;;;;5011578;28;20387;-63
2021/05/25 08:00:51;;;;;;;6.22;1.95;;;10.80;99.90;;;;;;5006795;28;20034;-62
2021/05/25 08:03:18;;;;;;;7.78;2.00;;;10.90;99.90;;;;;;5009067;28;20607;-61
2021/05/25 08:05:44;;;;;;;9.63;2.30;;;11.00;99.90;;;;;;4994047;28;20653;-60
2021/05/25 08:08:10;;;;;;;9.45;1.65;;;11.10;99.90;;;;;;5011587;28;20030;-62
2021/05/25 08:10:36;;;;;;;7.88;1.63;;;11.10;99.90;;;;;;5012486;28;20095;-62
2021/05/25 08:13:05;;;;;;;11.95;4.40;;;11.10;99.90;;;;;;5011825;28;20484;-61
2021/05/25 08:15:33;;;;;;;12.20;3.63;;;11.00;99.90;;;;;;4999279;28;20116;-62
2021/05/25 08:20:25;;;;;;;9.45;1.80;;;10.90;99.90;;;;;;5009949;28;20045;-61
2021/05/25 08:22:56;;;;;;;8.27;1.77;;;11.00;99.90;;;;;;5010990;28;20041;-61
2021/05/25 08:25:25;;;;;;;6.30;1.77;;;11.00;99.90;;;;;;5007755;28;20061;-62
2021/05/25 08:27:53;;;;;;;11.93;2.53;;;11.00;99.90;;;;;;5011198;28;20038;-62
2021/05/25 08:30:21;;;;;;;6.72;3.28;;;11.10;99.90;;;;;;5010674;28;20495;-63
2021/05/25 08:32:49;;;;;;;6.47;1.73;;;11.20;99.90;;;;;;5011491;28;20415;-61
2021/05/25 08:35:16;;;;;;;7.00;1.65;;;11.20;99.90;;;;;;5009826;28;20026;-62
2021/05/25 08:37:45;;;;;;;8.30;1.80;;;11.20;99.90;;;;;;5011085;28;20263;-62
2021/05/25 08:40:12;;;;;;;6.68;1.60;;;11.20;99.90;;;;;;5006210;28;20109;-62
2021/05/25 08:42:38;;;;;;;8.63;1.70;;;11.30;99.90;;;;;;5011646;28;20033;-61
2021/05/25 08:45:06;;;;;;;6.75;1.60;;;11.20;99.90;;;;;;5003302;28;20827;-61
2021/05/25 08:47:33;;;;;;;13.13;4.68;;;11.30;99.90;;;;;;5011430;28;20034;-61
2021/05/25 08:49:59;;;;;;;11.23;2.22;;;11.30;99.90;;;;;;5010012;28;20112;-62
2021/05/25 08:52:24;;;;;;;10.25;1.90;;;11.40;99.90;;;;;;5010112;28;20125;-62
2021/05/25 08:54:50;;;;;;;5.10;1.50;;;11.40;99.90;;;;;;5010166;28;20502;-63
2021/05/25 08:57:16;;;;;;;7.05;1.90;;;11.60;99.90;;;;;;5010398;28;20042;-63
2021/05/25 08:59:41;;;;;;;9.00;1.90;;;11.60;99.90;;;;;;5014581;28;20049;-63
2021/05/25 09:02:13;;;;;;;12.30;2.42;;;11.70;99.90;;;;;;5016218;28;20476;-62
2021/05/25 09:05:01;;;;;;;15.48;2.03;;;11.90;99.90;;;;;;5028095;28;20029;-63
2021/05/25 09:07:39;;;;;;;8.48;2.35;;;12.00;99.90;;;;;;5010813;28;20123;-61
2021/05/25 09:10:09;;;;;;;7.03;1.70;;;12.00;99.90;;;;;;5009246;28;20065;-62
2021/05/25 09:12:40;;;;;;;11.30;2.33;;;12.00;99.90;;;;;;5011001;28;20114;-61
2021/05/25 09:15:07;;;;;;;9.23;2.22;;;12.10;99.90;;;;;;5009775;28;20030;-62
2021/05/25 09:17:33;;;;;;;11.10;2.50;;;12.10;99.90;;;;;;5010258;28;20058;-62
2021/05/25 09:20:00;;;;;;;5.45;1.83;;;12.00;99.90;;;;;;5009636;28;20037;-62
2021/05/25 09:22:31;;;;;;;20.40;2.95;;;12.00;99.90;;;;;;5008410;28;20060;-62
2021/05/25 09:25:01;;;;;;;15.90;2.10;;;12.10;99.90;;;;;;5009426;28;20380;-61
2021/05/25 09:27:28;;;;;;;7.47;1.90;;;12.10;99.90;;;;;;5010315;28;20396;-63
2021/05/25 09:30:07;;;;;;;7.68;1.90;;;12.00;99.90;;;;;;5009145;28;20037;-62
2021/05/25 09:32:36;;;;;;;13.30;2.35;;;12.10;99.90;;;;;;5010495;28;20041;-61
2021/05/25 09:35:05;;;;;;;14.07;2.38;;;12.10;99.90;;;;;;5009403;28;20124;-62
2021/05/25 09:37:31;;;;;;;13.52;2.13;;;12.20;99.90;;;;;;5008896;28;20093;-63
2021/05/25 09:40:03;;;;;;;6.53;1.60;;;12.30;99.90;;;;;;5008402;28;20046;-63
2021/05/25 09:42:30;;;;;;;14.48;1.90;;;12.40;99.90;;;;;;5010340;28;20030;-61
2021/05/25 09:45:10;;;;;;;10.85;2.17;;;12.40;99.90;;;;;;5009708;28;20042;-61
2021/05/25 09:47:49;;;;;;;10.80;1.90;;;12.30;99.90;;;;;;5010466;28;20488;-61
2021/05/25 09:50:17;;;;;;;9.27;2.08;;;12.30;99.90;;;;;;5010503;28;20061;-64
2021/05/25 09:53:05;;;;;;;6.00;1.95;;;12.30;99.90;;;;;;5010395;28;20129;-61
2021/05/25 09:55:45;;;;;;;11.88;2.30;;;12.50;99.90;;;;;;5010188;28;20065;-61
2021/05/25 09:58:10;;;;;;;10.00;1.67;;;12.50;99.90;;;;;;5010662;28;20040;-62
2021/05/25 10:00:39;;;;;;;18.48;2.53;;;12.60;99.90;;;;;;4992980;28;20038;-61
2021/05/25 10:03:13;;;;;;;14.15;1.90;;;12.70;99.90;;;;;;5024753;28;20132;-64
2021/05/25 10:05:40;;;;;;;10.00;2.10;;;12.60;99.90;;;;;;5009763;28;20165;-62
2021/05/25 10:08:06;;;;;;;10.95;1.65;;;12.60;99.90;;;;;;5011836;28;20542;-61
2021/05/25 10:10:34;;;;;;;12.70;2.10;;;12.60;99.90;;;;;;5022756;28;20104;-60
2021/05/25 10:13:00;;;;;;;12.75;1.83;;;12.60;99.90;;;;;;5010752;28;20042;-62
2021/05/25 10:15:27;;;;;;;17.27;2.60;;;12.60;99.90;;;;;;5009929;28;20037;-61
2021/05/25 10:20:23;;;;;;;13.32;2.50;;;12.60;99.90;;;;;;5009102;28;20480;-61
2021/05/25 10:22:49;;;;;;;9.50;2.03;;;12.50;99.90;;;;;;5010388;28;20128;-60
2021/05/25 10:25:17;;;;;;;17.27;2.83;;;12.50;99.90;;;;;;5009395;28;20042;-61
2021/05/25 10:27:45;;;;;;;8.52;2.05;;;12.40;99.90;;;;;;5010170;28;20065;-61
2021/05/25 10:30:26;;;;;;;14.43;2.35;;;12.50;99.90;;;;;;5009819;28;20033;-60
2021/05/25 10:33:12;;;;;;;8.35;2.13;;;12.60;99.90;;;;;;5010357;28;20396;-62
2021/05/25 10:36:14;;;;;;;7.85;1.98;;;12.60;99.90;;;;;;5009654;28;20038;-60
2021/05/25 10:38:46;;;;;;;9.82;2.10;;;12.50;99.90;;;;;;5010803;28;20488;-63
2021/05/25 10:41:27;;;;;;;10.48;2.13;;;12.30;99.90;;;;;;5009708;28;20038;-61
2021/05/25 10:43:55;;;;;;;9.30;1.90;;;12.40;99.90;;;;;;5010610;28;20045;-61
2021/05/25 10:46:24;;;;;;;5.63;2.00;;;12.40;99.90;;;;;;5009621;28;20076;-64
2021/05/25 10:49:06;;;;;;;5.90;1.65;;;12.30;99.90;;;;;;5011103;28;20030;-64
2021/05/25 10:51:53;;;;;;;5.35;1.88;;;12.20;99.90;;;;;;5012840;28;20430;-62
2021/05/25 10:54:27;;;;;;;7.30;1.98;;;12.30;99.90;;;;;;4995768;28;20124;-63
2021/05/25 10:56:54;;;;;;;10.02;2.15;;;12.30;99.90;;;;;;5001434;28;20411;-61
2021/05/25 10:59:21;;;;;;;7.63;1.90;;;12.30;99.90;;;;;;5012369;28;20110;-63
2021/05/25 11:01:59;;;;;;;14.15;2.38;;;12.30;99.90;;;;;;5013454;28;20034;-62
2021/05/25 11:04:37;;;;;;;5.90;2.25;;;12.30;99.90;;;;;;5011245;28;20037;-62
2021/05/25 11:07:42;;;;;;;4.32;1.80;;;12.30;99.90;;;;;;4994836;28;20045;-61
2021/05/25 11:10:26;;;;;;;8.20;2.00;;;12.30;99.90;;;;;;4932974;29;20075;-61
2021/05/25 11:13:20;;;;;;;11.85;2.88;;;12.30;99.90;;;;;;4934365;29;20058;-61
2021/05/25 11:16:10;;;;;;;9.13;2.15;;;12.30;99.90;;;;;;4992766;28;20122;-63
2021/05/25 11:24:33;;;;;;;8.05;2.00;;;12.40;99.90;;;;;;5010721;28;20744;-63
2021/05/25 11:27:11;;;;;;;9.75;2.28;;;12.40;99.90;;;;;;5011616;28;20460;-62
2021/05/25 11:29:41;;;;;;;11.55;2.25;;;12.50;99.90;;;;;;5012263;28;20078;-63
2021/05/25 11:32:11;;;;;;;12.60;2.70;;;12.60;99.90;;;;;;5013295;28;20140;-63
2021/05/25 11:34:38;;;;;;;17.40;2.33;;;12.60;99.90;;;;;;5012076;28;20042;-63
2021/05/25 11:37:07;;;;;;;32.45;4.10;;;12.70;99.90;;;;;;5012660;28;20025;-61
2021/05/25 11:39:34;;;;;;;38.33;5.28;;;13.10;99.90;;;;;;5024813;28;20034;-62
2021/05/25 11:42:07;;;;;;;18.13;2.95;;;13.30;99.90;;;;;;5010986;28;20042;-63
2021/05/25 11:44:42;;;;;;;20.42;2.50;;;13.40;99.90;;;;;;5012347;28;20049;-63
2021/05/25 11:47:09;;;;;;;11.05;2.25;;;13.60;99.90;;;;;;5012006;28;20435;-63
2021/05/25 11:49:41;;;;;;;19.33;2.92;;;13.70;99.90;;;;;;5012221;28;20040;-62
2021/05/25 11:52:23;;;;;;;8.07;1.92;;;13.80;99.90;;;;;;5011919;28;20034;-61
2021/05/25 11:54:51;;;;;;;15.65;2.65;;;13.80;99.90;;;;;;5011708;28;20030;-63
2021/05/25 11:57:28;;;;;;;19.67;2.55;;;13.70;99.90;;;;;;5012435;28;20495;-62
2021/05/25 11:59:55;;;;;;;37.63;4.88;;;13.60;99.90;;;;;;5007446;28;20388;-64
2021/05/25 12:02:29;;;;;;;7.18;1.92;;;13.40;99.90;;;;;;5012097;28;20056;-62
2021/05/25 12:05:03;;;;;;;8.48;1.80;;;13.30;99.90;;;;;;5008317;28;20373;-62
2021/05/25 12:07:29;;;;;;;19.58;2.72;;;13.30;99.90;;;;;;5012157;28;20042;-62
2021/05/25 12:09:56;;;;;;;10.82;2.28;;;13.20;99.90;;;;;;5017500;28;20060;-61
2021/05/25 12:12:26;;;;;;;17.88;3.03;;;13.10;99.90;;;;;;5005951;28;20041;-61
2021/05/25 12:14:53;;;;;;;22.80;2.60;;;13.00;99.90;;;;;;5005571;28;20382;-62
2021/05/25 12:17:25;;;;;;;18.83;2.88;;;13.00;99.90;;;;;;5011635;28;20037;-63
2021/05/25 12:19:56;;;;;;;8.50;2.33;;;13.00;99.90;;;;;;5011012;28;20034;-62
2021/05/25 12:22:40;;;;;;;21.10;2.83;;;12.90;99.90;;;;;;5012009;28;20049;-60
2021/05/25 12:25:29;;;;;;;14.32;2.78;;;12.90;99.90;;;;;;5006901;28;20045;-60
2021/05/25 12:28:09;;;;;;;19.20;2.67;;;12.90;99.90;;;;;;5010617;28;20048;-60
2021/05/25 12:30:37;;;;;;;9.65;2.03;;;13.00;99.90;;;;;;4991871;28;20563;-64
2021/05/25 12:33:05;;;;;;;13.43;2.63;;;13.20;99.90;;;;;;5005082;28;20045;-63
2021/05/25 12:35:31;;;;;;;11.63;2.20;;;13.30;99.90;;;;;;5009297;28;20116;-63
2021/05/25 12:38:06;;;;;;;8.30;1.98;;;13.40;99.90;;;;;;5011192;28;20041;-63
2021/05/25 12:40:32;;;;;;;14.90;2.17;;;13.50;99.90;;;;;;5004517;28;20046;-62
2021/05/25 12:42:58;;;;;;;13.20;2.35;;;13.60;99.90;;;;;;5012361;28;20549;-61
2021/05/25 12:45:30;;;;;;;16.90;1.83;;;13.90;99.90;;;;;;5009689;28;20125;-63
2021/05/25 12:47:58;;;;;;;7.78;2.00;;;14.10;99.90;;;;;;5006292;28;20026;-64
2021/05/25 12:50:37;;;;;;;14.98;2.63;;;14.30;99.90;;;;;;4991942;28;20061;-62
2021/05/25 12:53:08;;;;;;;10.35;1.77;;;14.40;99.90;;;;;;5010943;28;20084;-63
2021/05/25 12:55:55;;;;;;;9.70;2.00;;;14.50;99.90;;;;;;5009529;28;20050;-62
2021/05/25 12:58:53;;;;;;;23.75;2.35;;;14.40;99.90;;;;;;5007787;28;20056;-62
2021/05/25 13:01:26;;;;;;;5.63;1.65;;;14.50;99.90;;;;;;4977027;28;20034;-62
2021/05/25 13:03:54;;;;;;;9.27;1.75;;;14.50;99.90;;;;;;5009872;28;20065;-61
2021/05/25 13:06:28;;;;;;;7.50;1.60;;;14.40;99.90;;;;;;5009697;28;20084;-63
2021/05/25 13:09:13;;;;;;;13.73;2.40;;;14.40;99.90;;;;;;5011381;28;20096;-63